createdAt,value
2023-04-18T00:00:21.747Z,3.03
2023-04-18T00:05:28.810Z,3.20
2023-04-18T00:10:36.185Z,2.90
2023-04-18T00:15:44.530Z,3.37
2023-04-18T00:20:51.586Z,3.37
2023-04-18T00:25:58.784Z,3.00
2023-04-18T00:31:06.451Z,2.80
2023-04-18T00:36:13.734Z,3.23
2023-04-18T00:41:21.930Z,3.13
2023-04-18T00:46:28.922Z,2.87
2023-04-18T00:51:39.028Z,3.37
2023-04-18T00:56:47.387Z,3.23
2023-04-18T01:01:54.680Z,3.13
2023-04-18T01:07:03.695Z,3.10
2023-04-18T01:12:10.905Z,2.97
2023-04-18T01:17:17.847Z,3.20
2023-04-18T01:22:25.558Z,3.20
2023-04-18T01:27:32.471Z,3.13
2023-04-18T01:32:39.351Z,3.40
2023-04-18T01:37:46.588Z,2.80
2023-04-18T01:42:54.113Z,3.30
2023-04-18T01:48:00.971Z,2.90
2023-04-18T01:53:07.745Z,3.47
2023-04-18T01:58:16.005Z,2.90
2023-04-18T02:03:23.923Z,3.00
2023-04-18T02:08:31.509Z,2.83
2023-04-18T02:13:38.449Z,2.73
2023-04-18T02:18:46.646Z,2.47
2023-04-18T02:23:54.083Z,2.60
2023-04-18T02:29:00.941Z,2.80
2023-04-18T02:34:08.320Z,3.30
2023-04-18T02:39:15.144Z,3.20
2023-04-18T02:44:22.170Z,3.20
2023-04-18T02:49:29.132Z,3.10
2023-04-18T02:54:36.174Z,3.23
2023-04-18T02:59:43.015Z,2.70
2023-04-18T03:04:50.278Z,3.00
2023-04-18T03:09:57.937Z,3.40
2023-04-18T03:15:05.843Z,2.63
2023-04-18T03:20:13.213Z,2.70
2023-04-18T03:25:20.140Z,2.73
2023-04-18T03:30:34.804Z,3.00
2023-04-18T03:35:54.807Z,2.03
2023-04-18T03:40:57.499Z,1.90
2023-04-18T03:46:05.116Z,2.53
2023-04-18T03:51:12.208Z,2.40
2023-04-18T03:56:19.536Z,2.40
2023-04-18T04:01:27.045Z,2.37
2023-04-18T04:06:34.325Z,2.20
2023-04-18T04:11:41.338Z,2.73
2023-04-18T04:16:48.443Z,2.70
2023-04-18T04:21:55.332Z,2.50
2023-04-18T04:27:04.645Z,1.93
2023-04-18T04:32:13.238Z,2.30
2023-04-18T04:37:21.613Z,2.00
2023-04-18T04:42:29.284Z,1.97
2023-04-18T04:47:36.954Z,1.80
2023-04-18T04:52:44.443Z,1.80
2023-04-18T04:57:51.229Z,1.80
2023-04-18T05:02:58.804Z,1.80
2023-04-18T05:08:06.688Z,1.70
2023-04-18T05:13:13.898Z,1.20
2023-04-18T05:18:21.090Z,1.77
2023-04-18T05:23:28.111Z,1.30
2023-04-18T05:28:35.530Z,1.63
2023-04-18T05:33:42.734Z,2.30
2023-04-18T05:38:49.562Z,1.90
2023-04-18T05:44:04.904Z,2.97
2023-04-18T05:49:07.479Z,2.80
2023-04-18T05:54:14.383Z,2.50
2023-04-18T05:59:21.615Z,2.43
2023-04-18T06:04:28.752Z,2.70
2023-04-18T06:09:35.904Z,2.47
2023-04-18T06:14:43.077Z,2.10
2023-04-18T06:19:50.794Z,1.93
2023-04-18T06:24:57.544Z,1.80
2023-04-18T06:30:05.352Z,1.60
2023-04-18T06:35:12.402Z,1.20
2023-04-18T06:40:19.843Z,1.43
2023-04-18T06:45:27.070Z,1.40
2023-04-18T06:50:34.011Z,1.20
2023-04-18T06:55:41.477Z,1.10
2023-04-18T07:00:49.996Z,1.17
2023-04-18T07:05:57.085Z,1.00
2023-04-18T07:11:04.312Z,1.00
2023-04-18T07:16:12.383Z,0.80
2023-04-18T07:21:20.065Z,1.30
2023-04-18T07:26:27.981Z,2.00
2023-04-18T07:31:35.352Z,1.50
2023-04-18T07:36:43.052Z,1.40
2023-04-18T07:41:51.375Z,0.90
2023-04-18T07:46:58.388Z,1.20
2023-04-18T07:52:05.249Z,1.20
2023-04-18T07:57:12.481Z,1.20
2023-04-18T08:02:19.383Z,1.53
2023-04-18T08:07:26.372Z,1.00
2023-04-18T08:12:33.422Z,1.10
2023-04-18T08:17:42.147Z,0.90
2023-04-18T08:23:05.154Z,0.70
2023-04-18T08:27:58.108Z,0.93
2023-04-18T08:33:04.975Z,0.93
2023-04-18T08:38:12.050Z,1.30
2023-04-18T08:43:18.949Z,1.60
2023-04-18T08:48:27.445Z,1.73
2023-04-18T08:53:35.708Z,1.07
2023-04-18T08:58:42.479Z,1.40
2023-04-18T09:03:52.435Z,0.70
2023-04-18T09:09:02.361Z,1.00
2023-04-18T09:14:09.257Z,0.83
2023-04-18T09:19:21.950Z,0.80
2023-04-18T09:24:30.734Z,0.80
2023-04-18T09:29:52.623Z,1.00
2023-04-18T09:35:04.430Z,0.97
2023-04-18T09:40:21.249Z,0.80
2023-04-18T09:45:28.959Z,0.70
2023-04-18T09:50:38.353Z,0.70
2023-04-18T09:55:45.708Z,0.60
2023-04-18T10:00:55.125Z,0.90
2023-04-18T10:06:01.982Z,0.90
2023-04-18T10:11:09.196Z,0.80
2023-04-18T10:16:19.068Z,0.80
2023-04-18T10:21:30.058Z,0.80
2023-04-18T10:26:50.544Z,0.70
2023-04-18T10:31:57.711Z,0.50
2023-04-18T10:37:08.299Z,0.50
2023-04-18T10:42:15.152Z,0.60
2023-04-18T10:47:23.811Z,0.67
2023-04-18T10:52:32.241Z,0.63
2023-04-18T10:57:45.469Z,0.60
2023-04-18T11:02:57.318Z,0.70
2023-04-18T11:08:04.863Z,0.60
2023-04-18T11:13:12.655Z,0.60
2023-04-18T11:18:19.571Z,0.73
2023-04-18T11:23:26.683Z,0.70
2023-04-18T11:28:33.953Z,0.60
2023-04-18T11:33:41.141Z,0.67
2023-04-18T11:38:47.986Z,0.63
2023-04-18T11:43:55.024Z,0.60
2023-04-18T11:49:02.001Z,0.50
2023-04-18T11:54:12.229Z,0.57
2023-04-18T11:59:19.546Z,0.50
2023-04-18T12:04:26.667Z,0.53
2023-04-18T12:09:34.088Z,0.60
2023-04-18T12:14:41.328Z,0.70
2023-04-18T12:19:50.713Z,0.50
2023-04-18T12:25:26.198Z,0.67
2023-04-18T12:30:37.739Z,0.60
2023-04-18T12:35:44.657Z,0.70
2023-04-18T12:40:52.852Z,0.87
2023-04-18T12:46:00.013Z,0.60
2023-04-18T12:51:07.564Z,0.53
2023-04-18T12:56:14.553Z,0.47
2023-04-18T13:01:21.516Z,0.53
2023-04-18T13:06:28.822Z,0.60
2023-04-18T13:11:36.033Z,0.50
2023-04-18T13:16:44.103Z,0.60
2023-04-18T13:21:51.687Z,0.60
2023-04-18T13:26:58.920Z,0.60
2023-04-18T13:32:07.032Z,0.60
2023-04-18T13:37:15.480Z,0.70
2023-04-18T13:42:22.441Z,0.50
2023-04-18T13:47:29.686Z,0.57
2023-04-18T13:52:37.406Z,0.70
2023-04-18T13:57:44.671Z,0.60
2023-04-18T14:02:52.479Z,0.70
2023-04-18T14:08:01.946Z,0.80
2023-04-18T14:13:08.774Z,0.90
2023-04-18T14:18:15.639Z,1.00
2023-04-18T14:23:23.101Z,1.20
2023-04-18T14:28:30.262Z,1.70
2023-04-18T14:33:38.003Z,1.93
2023-04-18T14:38:46.398Z,1.30
2023-04-18T14:43:53.360Z,1.70
2023-04-18T14:49:01.438Z,1.77
2023-04-18T14:54:08.535Z,1.93
2023-04-18T14:59:16.820Z,2.37
2023-04-18T15:04:24.521Z,2.07
2023-04-18T15:09:32.172Z,2.40
2023-04-18T15:14:40.151Z,2.40
2023-04-18T15:19:46.989Z,2.43
2023-04-18T15:24:53.779Z,2.53
2023-04-18T15:30:00.732Z,2.63
2023-04-18T15:35:08.855Z,2.20
2023-04-18T15:40:17.728Z,2.33
2023-04-18T15:45:24.776Z,4.37
2023-04-18T15:50:33.636Z,27.80
2023-04-18T15:55:40.653Z,11.83
2023-04-18T16:00:47.980Z,21.90
2023-04-18T16:05:55.137Z,13.53
2023-04-18T16:11:02.671Z,12.30
2023-04-18T16:16:10.297Z,8.27
2023-04-18T16:21:19.007Z,2.57
2023-04-18T16:26:26.213Z,7.70
2023-04-18T16:31:35.075Z,17.27
2023-04-18T16:36:42.071Z,4.20
2023-04-18T16:41:49.088Z,4.90
2023-04-18T16:46:56.052Z,3.63
2023-04-18T16:52:02.983Z,3.10
2023-04-18T16:57:10.084Z,2.90
2023-04-18T17:02:17.344Z,4.13
2023-04-18T17:07:24.890Z,3.50
2023-04-18T17:12:31.820Z,3.87
2023-04-18T17:17:38.611Z,3.37
2023-04-18T17:22:46.181Z,3.70
2023-04-18T17:27:52.926Z,2.60
2023-04-18T17:32:59.850Z,3.30
2023-04-18T17:38:06.765Z,2.40
2023-04-18T17:43:14.384Z,2.73
2023-04-18T17:48:21.769Z,2.53
2023-04-18T17:53:31.486Z,2.80
2023-04-18T17:58:37.500Z,3.10
2023-04-18T18:03:46.002Z,2.80
2023-04-18T18:08:53.203Z,2.53
2023-04-18T18:14:00.696Z,3.03
2023-04-18T18:19:08.385Z,5.30
2023-04-18T18:24:15.382Z,2.60
2023-04-18T18:29:22.566Z,2.00
2023-04-18T18:34:31.548Z,1.43
2023-04-18T18:39:38.307Z,1.53
2023-04-18T18:44:45.623Z,1.70
2023-04-18T18:49:52.678Z,1.80
2023-04-18T18:55:01.167Z,2.73
2023-04-18T19:00:11.389Z,2.70
2023-04-18T19:05:18.102Z,3.23
2023-04-18T19:10:25.243Z,3.63
2023-04-18T19:15:32.072Z,4.37
2023-04-18T19:20:40.667Z,4.20
2023-04-18T19:25:48.367Z,4.20
2023-04-18T19:30:55.320Z,3.23
2023-04-18T19:36:02.524Z,4.00
2023-04-18T19:41:09.476Z,3.40
2023-04-18T19:46:16.700Z,3.10
2023-04-18T19:51:23.648Z,3.07
2023-04-18T19:56:30.751Z,3.20
2023-04-18T20:01:37.886Z,3.37
2023-04-18T20:06:44.936Z,4.00
2023-04-18T20:11:53.385Z,3.20
2023-04-18T20:17:00.656Z,3.60
2023-04-18T20:22:07.514Z,2.77
2023-04-18T20:27:15.083Z,3.03
2023-04-18T20:32:22.054Z,2.60
2023-04-18T20:37:29.010Z,2.53
2023-04-18T20:42:37.265Z,2.37
2023-04-18T20:47:44.287Z,2.60
2023-04-18T20:52:51.520Z,2.70
2023-04-18T20:57:59.110Z,2.40
2023-04-18T21:03:05.942Z,2.60
2023-04-18T21:08:13.102Z,2.80
2023-04-18T21:13:20.253Z,2.50
2023-04-18T21:18:27.085Z,2.87
2023-04-18T21:23:34.022Z,2.53
2023-04-18T21:29:00.554Z,2.40
2023-04-18T21:34:08.032Z,2.50
2023-04-18T21:39:14.944Z,2.53
2023-04-18T21:44:22.171Z,3.40
2023-04-18T21:49:29.113Z,3.37
2023-04-18T21:54:35.948Z,2.97
2023-04-18T21:59:42.751Z,3.00
2023-04-18T22:04:53.017Z,2.80
2023-04-18T22:10:00.592Z,2.30
2023-04-18T22:15:09.015Z,2.40
2023-04-18T22:20:16.063Z,2.40
2023-04-18T22:25:22.881Z,1.63
2023-04-18T22:30:30.480Z,1.67
2023-04-18T22:35:37.359Z,1.50
2023-04-18T22:40:44.445Z,1.87
2023-04-18T22:45:52.197Z,2.33
2023-04-18T22:51:01.277Z,2.30
2023-04-18T22:56:09.021Z,2.10
2023-04-18T23:01:16.264Z,2.10
2023-04-18T23:06:23.777Z,2.13
2023-04-18T23:11:30.850Z,2.33
2023-04-18T23:16:37.711Z,1.80
2023-04-18T23:21:46.460Z,2.10
2023-04-18T23:26:53.700Z,1.83
2023-04-18T23:32:00.581Z,2.27
2023-04-18T23:37:07.762Z,1.90
2023-04-18T23:42:14.896Z,2.00
2023-04-18T23:47:22.255Z,1.70
2023-04-18T23:52:29.477Z,1.73
2023-04-18T23:57:36.381Z,1.60
